ADDS METAR Data INFO
IDs: Format: Raw Decoded Include TAF

Data at: 1327 UTC 19 Jul 2018

METAR for:KVDF (Tampa/Executive Arpt, FL, US)
Text:KVDF 191315Z AUTO 19005KT 10SM CLR 28/24 A3000 RMK AO2
Temperature: 28.0°C ( 82°F)
Dewpoint: 24.0°C ( 75°F) [RH = 79%]
Pressure (altimeter):30.00 inches Hg (1016.0 mb)
Winds:from the S (190 degrees) at 6 MPH (5 knots; 2.6 m/s)
Visibility:10 or more sm (16+ km)
Ceiling:at least 12,000 feet AGL
Clouds:sky clear below 12,000 feet AGL
QC Flag:automated observation with no human augmentation